Station History

Weather Underground - logo

Station Historical Data
Daily Summary for January 23, 2018 Units:  English    Metric   Both
« Previous Day
Next Day »
Daily Weekly Monthly Yearly Custom
  High: Low: Average:
Temperature: 62.0 °F 34.9 °F 47.2 °F
Dew Point: 47.2 °F 33.3 °F 40.9 °F
Humidity: 95 % 54 % 80 %
Wind Speed: 4.6 mph 0.0 mph 0.4 mph
Wind Gust: 3.5 mph - -
Wind:- - WNW
Pressure: 30.33 in 30.22 in -
Precipitation: 0.00 in    
Historical Graphs
 
 
Tabular Data for January 23, 2018
Time Temperature Dew Point Pressure Wind Wind Speed Wind Gust Humidity Rainfall Rate (Hourly)
00:02 41.3 °F 38.6 °F 30.31 in Calm     90 % 0.00 in
00:07 41.2 °F 38.5 °F 30.31 in NNW 1.2 mph   90 % 0.00 in
00:12 41.7 °F 39.0 °F 30.31 in NNW 1.2 mph 1.2 mph 90 % 0.00 in
00:17 42.0 °F 39.0 °F 30.31 in North 1.2 mph   89 % 0.00 in
00:27 42.0 °F 38.7 °F 30.31 in Calm     88 % 0.00 in
00:32 41.9 °F 38.3 °F 30.31 in Calm     87 % 0.00 in
00:37 41.6 °F 38.3 °F 30.31 in NNW 1.2 mph   88 % 0.00 in
00:42 41.5 °F 38.2 °F 30.31 in NNW 1.2 mph   88 % 0.00 in
00:47 41.3 °F 38.0 °F 30.31 in NNW 1.2 mph   88 % 0.00 in
00:52 41.3 °F 38.0 °F 30.31 in Calm     88 % 0.00 in
00:57 41.5 °F 38.5 °F 30.31 in NW 1.2 mph 1.2 mph 89 % 0.00 in
01:02 41.6 °F 38.3 °F 30.31 in Calm     88 % 0.00 in
01:05 41.8 °F 38.5 °F 30.31 in WNW 1.2 mph   88 % 0.00 in
01:10 42.1 °F 38.8 °F 30.31 in WNW 1.2 mph   88 % 0.00 in
01:15 42.3 °F 38.7 °F 30.31 in Calm     87 % 0.00 in
01:20 42.5 °F 38.9 °F 30.31 in NNW 1.0 mph   87 % 0.00 in
01:25 42.6 °F 39.0 °F 30.31 in Calm     87 % 0.00 in
01:30 42.7 °F 38.8 °F 30.31 in NNW 1.2 mph   86 % 0.00 in
01:35 42.7 °F 38.8 °F 30.31 in Calm     86 % 0.00 in
01:40 42.5 °F 38.6 °F 30.31 in Calm     86 % 0.00 in
01:45 42.4 °F 38.5 °F 30.31 in Calm     86 % 0.00 in
01:50 42.2 °F 38.6 °F 30.31 in Calm     87 % 0.00 in
01:55 41.9 °F 38.0 °F 30.31 in Calm   0.1 mph 86 % 0.00 in
02:00 41.6 °F 38.0 °F 30.31 in Calm     87 % 0.00 in
02:05 41.3 °F 37.7 °F 30.31 in NNW 4.6 mph   87 % 0.00 in
02:10 40.7 °F 36.8 °F 30.31 in Calm     86 % 0.00 in
02:15 39.5 °F 36.2 °F 30.31 in Calm     88 % 0.00 in
02:20 39.1 °F 36.1 °F 30.31 in Calm     89 % 0.00 in
02:25 38.7 °F 36.0 °F 30.31 in Calm     90 % 0.00 in
02:30 38.4 °F 35.7 °F 30.31 in Calm     90 % 0.00 in
02:35 37.9 °F 35.2 °F 30.31 in Calm     90 % 0.00 in
02:40 37.5 °F 34.8 °F 30.31 in Calm     90 % 0.00 in
02:45 37.2 °F 34.5 °F 30.31 in Calm     90 % 0.00 in
02:50 37.0 °F 34.6 °F 30.31 in Calm     91 % 0.00 in
02:55 37.0 °F 34.9 °F 30.31 in Calm     92 % 0.00 in
03:00 37.2 °F 35.1 °F 30.31 in Calm     92 % 0.00 in
03:05 37.5 °F 35.4 °F 30.31 in Calm     92 % 0.00 in
03:10 37.7 °F 35.6 °F 30.32 in Calm     92 % 0.00 in
03:15 37.9 °F 36.1 °F 30.32 in Calm     93 % 0.00 in
03:21 38.1 °F 36.3 °F 30.32 in Calm     93 % 0.00 in
03:26 38.2 °F 36.4 °F 30.32 in Calm     93 % 0.00 in
03:31 38.2 °F 36.1 °F 30.32 in Calm     92 % 0.00 in
03:36 38.1 °F 36.0 °F 30.32 in Calm     92 % 0.00 in
03:41 38.2 °F 36.1 °F 30.31 in Calm     92 % 0.00 in
03:46 38.2 °F 36.1 °F 30.31 in Calm     92 % 0.00 in
03:51 38.1 °F 36.0 °F 30.31 in Calm     92 % 0.00 in
03:56 37.9 °F 35.5 °F 30.31 in Calm     91 % 0.00 in
04:01 37.5 °F 35.1 °F 30.31 in Calm     91 % 0.00 in
04:06 37.2 °F 34.8 °F 30.31 in Calm     91 % 0.00 in
04:11 37.1 °F 35.0 °F 30.31 in Calm     92 % 0.00 in
04:16 37.0 °F 34.9 °F 30.31 in Calm     92 % 0.00 in
04:21 36.3 °F 33.9 °F 30.31 in Calm     91 % 0.00 in
04:26 35.9 °F 33.5 °F 30.31 in Calm     91 % 0.00 in
04:31 35.7 °F 33.6 °F 30.30 in Calm     92 % 0.00 in
04:36 35.6 °F 33.5 °F 30.30 in Calm     92 % 0.00 in
04:46 35.4 °F 33.6 °F 30.30 in Calm     93 % 0.00 in
04:51 35.3 °F 33.5 °F 30.30 in Calm     93 % 0.00 in
04:56 35.6 °F 33.8 °F 30.30 in Calm     93 % 0.00 in
05:06 35.9 °F 34.3 °F 30.30 in Calm     94 % 0.00 in
05:11 36.0 °F 34.4 °F 30.30 in Calm     94 % 0.00 in
05:16 35.9 °F 34.1 °F 30.30 in Calm     93 % 0.00 in
05:21 35.7 °F 33.9 °F 30.30 in Calm     93 % 0.00 in
05:26 35.7 °F 33.9 °F 30.30 in Calm     93 % 0.00 in
05:31 35.6 °F 33.8 °F 30.30 in Calm     93 % 0.00 in
05:36 35.6 °F 33.8 °F 30.31 in Calm     93 % 0.00 in
05:41 35.8 °F 34.2 °F 30.31 in Calm     94 % 0.00 in
05:46 36.2 °F 34.6 °F 30.31 in Calm     94 % 0.00 in
05:51 36.3 °F 34.7 °F 30.31 in Calm     94 % 0.00 in
05:56 36.3 °F 34.7 °F 30.31 in Calm     94 % 0.00 in
06:01 36.2 °F 34.6 °F 30.31 in Calm     94 % 0.00 in
06:11 36.0 °F 34.4 °F 30.31 in Calm     94 % 0.00 in
06:16 36.1 °F 34.5 °F 30.31 in Calm     94 % 0.00 in
06:21 36.2 °F 34.6 °F 30.31 in Calm     94 % 0.00 in
06:26 36.2 °F 34.6 °F 30.31 in Calm     94 % 0.00 in
06:31 36.1 °F 34.5 °F 30.31 in Calm     94 % 0.00 in
06:36 35.8 °F 34.2 °F 30.31 in Calm     94 % 0.00 in
06:41 35.5 °F 33.9 °F 30.31 in Calm     94 % 0.00 in
06:51 35.1 °F 33.5 °F 30.31 in Calm     94 % 0.00 in
06:56 35.0 °F 33.4 °F 30.31 in Calm     94 % 0.00 in
07:06 34.9 °F 33.3 °F 30.32 in Calm     94 % 0.00 in
07:11 35.2 °F 33.6 °F 30.32 in Calm     94 % 0.00 in
07:16 35.3 °F 33.7 °F 30.31 in North 1.2 mph 1.2 mph 94 % 0.00 in
07:21 35.4 °F 33.8 °F 30.31 in Calm     94 % 0.00 in
07:26 35.6 °F 34.0 °F 30.31 in North 1.2 mph 1.2 mph 94 % 0.00 in
07:31 35.8 °F 34.2 °F 30.31 in Calm     94 % 0.00 in
07:36 36.2 °F 34.6 °F 30.31 in Calm     94 % 0.00 in
07:41 36.6 °F 35.0 °F 30.31 in Calm     94 % 0.00 in
07:46 37.2 °F 35.9 °F 30.31 in North 1.2 mph   95 % 0.00 in
07:51 37.8 °F 36.5 °F 30.31 in Calm     95 % 0.00 in
07:56 38.4 °F 36.8 °F 30.31 in Calm     94 % 0.00 in
08:01 39.3 °F 37.7 °F 30.32 in Calm     94 % 0.00 in
08:06 40.8 °F 39.2 °F 30.31 in Calm     94 % 0.00 in
08:11 42.0 °F 39.6 °F 30.31 in Calm     91 % 0.00 in
08:16 43.1 °F 40.1 °F 30.31 in Calm     89 % 0.00 in
08:21 44.1 °F 40.5 °F 30.31 in Calm     87 % 0.00 in
08:31 45.6 °F 40.7 °F 30.32 in Calm     83 % 0.00 in
08:36 45.8 °F 40.6 °F 30.32 in Calm     82 % 0.00 in
08:41 46.1 °F 40.6 °F 30.32 in Calm     81 % 0.00 in
08:46 46.6 °F 41.1 °F 30.32 in Calm     81 % 0.00 in
08:56 47.6 °F 41.1 °F 30.32 in Calm     78 % 0.00 in
09:01 48.6 °F 42.7 °F 30.32 in Calm     80 % 0.00 in
09:06 49.7 °F 43.8 °F 30.32 in Calm     80 % 0.00 in
09:11 50.3 °F 43.7 °F 30.32 in Calm     78 % 0.00 in
09:16 49.3 °F 43.1 °F 30.32 in WNW 1.2 mph   79 % 0.00 in
09:21 49.1 °F 43.2 °F 30.32 in Calm     80 % 0.00 in
09:27 50.3 °F 43.7 °F 30.32 in Calm     78 % 0.00 in
09:31 51.2 °F 43.2 °F 30.32 in SSE 1.0 mph   74 % 0.00 in
09:37 51.7 °F 42.6 °F 30.32 in ENE 1.2 mph 1.2 mph 71 % 0.00 in
09:42 52.0 °F 43.3 °F 30.32 in Calm     72 % 0.00 in
09:47 52.4 °F 43.3 °F 30.33 in WNW 1.2 mph 1.2 mph 71 % 0.00 in
09:52 52.5 °F 43.4 °F 30.33 in SE 1.2 mph 1.2 mph 71 % 0.00 in
09:57 52.8 °F 42.9 °F 30.33 in Calm     69 % 0.00 in
10:02 52.8 °F 42.5 °F 30.33 in NW 1.2 mph 1.2 mph 68 % 0.00 in
10:07 52.4 °F 42.5 °F 30.33 in Calm     69 % 0.00 in
10:12 52.0 °F 41.8 °F 30.33 in NW 1.2 mph 1.2 mph 68 % 0.00 in
10:17 52.1 °F 41.9 °F 30.33 in Calm     68 % 0.00 in
10:22 52.6 °F 42.3 °F 30.33 in Calm     68 % 0.00 in
10:27 52.9 °F 42.2 °F 30.32 in Calm     67 % 0.00 in
10:32 53.7 °F 42.6 °F 30.32 in Calm     66 % 0.00 in
10:37 54.3 °F 43.2 °F 30.32 in Calm     66 % 0.00 in
10:42 54.0 °F 42.9 °F 30.32 in Calm     66 % 0.00 in
10:47 54.4 °F 42.9 °F 30.32 in Calm     65 % 0.00 in
10:52 54.1 °F 41.8 °F 30.32 in WNW 1.2 mph 1.2 mph 63 % 0.00 in
10:57 54.2 °F 42.3 °F 30.32 in ESE 1.2 mph   64 % 0.00 in
11:02 54.6 °F 42.3 °F 30.31 in NW 2.3 mph 2.3 mph 63 % 0.00 in
11:07 54.8 °F 42.0 °F 30.31 in WNW 2.3 mph 2.3 mph 62 % 0.00 in
11:12 54.8 °F 43.3 °F 30.31 in Calm     65 % 0.00 in
11:17 55.2 °F 42.8 °F 30.31 in NW 2.3 mph 2.3 mph 63 % 0.00 in
11:22 55.1 °F 42.3 °F 30.31 in WNW 1.2 mph 1.2 mph 62 % 0.00 in
11:32 55.4 °F 42.6 °F 30.30 in NNW 2.3 mph 2.3 mph 62 % 0.00 in
11:37 55.6 °F 42.8 °F 30.30 in Calm   0.1 mph 62 % 0.00 in
11:42 56.4 °F 43.5 °F 30.30 in Calm     62 % 0.00 in
11:52 56.8 °F 43.1 °F 30.29 in West 2.0 mph 2.0 mph 60 % 0.00 in
11:57 56.8 °F 42.6 °F 30.29 in West 2.3 mph 2.3 mph 59 % 0.00 in
12:02 56.9 °F 43.2 °F 30.29 in Calm     60 % 0.00 in
12:07 57.3 °F 43.1 °F 30.28 in WNW 2.3 mph 2.3 mph 59 % 0.00 in
12:12 57.4 °F 43.6 °F 30.28 in NW 2.3 mph 2.3 mph 60 % 0.00 in
12:17 58.2 °F 45.2 °F 30.28 in Calm     62 % 0.00 in
12:22 58.6 °F 43.9 °F 30.28 in Calm     58 % 0.00 in
12:27 58.7 °F 44.4 °F 30.27 in WNW 1.2 mph 1.2 mph 59 % 0.00 in
12:32 58.6 °F 43.9 °F 30.27 in WNW 1.2 mph 1.2 mph 58 % 0.00 in
12:37 58.7 °F 44.4 °F 30.27 in ESE 2.3 mph 2.3 mph 59 % 0.00 in
12:42 59.0 °F 44.7 °F 30.26 in Calm     59 % 0.00 in
12:47 59.3 °F 45.0 °F 30.26 in Calm     59 % 0.00 in
12:52 59.6 °F 44.8 °F 30.26 in NW 1.2 mph 1.2 mph 58 % 0.00 in
12:57 59.5 °F 44.7 °F 30.26 in NW 1.2 mph   58 % 0.00 in
13:02 59.5 °F 44.7 °F 30.25 in NW 1.2 mph 1.2 mph 58 % 0.00 in
13:07 60.0 °F 45.2 °F 30.25 in NW 2.3 mph 2.3 mph 58 % 0.00 in
13:12 60.1 °F 44.8 °F 30.25 in NW 2.3 mph 2.3 mph 57 % 0.00 in
13:17 60.2 °F 44.9 °F 30.25 in WNW 1.2 mph 1.2 mph 57 % 0.00 in
13:22 60.4 °F 45.1 °F 30.25 in NNW 1.2 mph   57 % 0.00 in
13:32 61.2 °F 45.8 °F 30.24 in South 1.2 mph   57 % 0.00 in
13:37 61.3 °F 45.5 °F 30.24 in NW 3.5 mph 3.5 mph 56 % 0.00 in
13:47 61.7 °F 46.3 °F 30.24 in Calm     57 % 0.00 in
13:52 62.0 °F 45.2 °F 30.24 in WNW 1.2 mph 1.2 mph 54 % 0.00 in
13:57 61.8 °F 45.0 °F 30.23 in WNW 1.2 mph 1.2 mph 54 % 0.00 in
14:02 61.8 °F 45.9 °F 30.23 in NW 3.5 mph 3.5 mph 56 % 0.00 in
14:07 61.6 °F 45.7 °F 30.23 in Calm     56 % 0.00 in
14:12 61.8 °F 45.9 °F 30.23 in NW 3.5 mph 3.5 mph 56 % 0.00 in
14:17 61.7 °F 45.4 °F 30.23 in Calm   0.6 mph 55 % 0.00 in
14:22 61.8 °F 45.9 °F 30.23 in NNW 1.0 mph   56 % 0.00 in
14:32 62.0 °F 45.2 °F 30.23 in WNW 1.2 mph 1.2 mph 54 % 0.00 in
14:37 61.8 °F 45.9 °F 30.23 in WNW 1.2 mph   56 % 0.00 in
14:42 62.0 °F 45.6 °F 30.23 in Calm     55 % 0.00 in
14:52 61.9 °F 46.0 °F 30.23 in NW 2.3 mph 2.3 mph 56 % 0.00 in
14:57 61.6 °F 46.2 °F 30.22 in WNW 1.2 mph   57 % 0.00 in
15:02 61.5 °F 46.1 °F 30.22 in Calm     57 % 0.00 in
15:13 61.5 °F 46.6 °F 30.22 in NW 3.5 mph 3.5 mph 58 % 0.00 in
15:18 61.3 °F 45.9 °F 30.22 in NW 3.5 mph 3.5 mph 57 % 0.00 in
15:23 61.1 °F 46.2 °F 30.22 in NW 1.2 mph 1.2 mph 58 % 0.00 in
15:28 61.1 °F 46.2 °F 30.22 in NNW 3.5 mph 3.5 mph 58 % 0.00 in
15:33 61.0 °F 45.7 °F 30.22 in WNW 1.2 mph   57 % 0.00 in
15:43 61.0 °F 46.6 °F 30.22 in Calm     59 % 0.00 in
15:48 60.9 °F 46.9 °F 30.22 in Calm     60 % 0.00 in
15:53 60.9 °F 46.5 °F 30.22 in NW 1.2 mph   59 % 0.00 in
16:03 60.6 °F 46.6 °F 30.22 in Calm     60 % 0.00 in
16:08 60.5 °F 47.0 °F 30.22 in Calm     61 % 0.00 in
16:18 60.2 °F 46.7 °F 30.22 in Calm     61 % 0.00 in
16:23 60.0 °F 46.9 °F 30.22 in Calm     62 % 0.00 in
16:28 59.8 °F 46.7 °F 30.22 in Calm     62 % 0.00 in
16:33 59.6 °F 46.6 °F 30.22 in Calm     62 % 0.00 in
16:43 59.1 °F 46.5 °F 30.22 in Calm     63 % 0.00 in
16:48 58.9 °F 47.2 °F 30.22 in Calm     65 % 0.00 in
16:53 58.5 °F 46.8 °F 30.22 in Calm     65 % 0.00 in
16:58 58.1 °F 46.8 °F 30.22 in Calm     66 % 0.00 in
17:03 57.6 °F 47.1 °F 30.22 in Calm     68 % 0.00 in
17:08 57.1 °F 47.0 °F 30.22 in Calm     69 % 0.00 in
17:13 56.5 °F 46.8 °F 30.22 in Calm     70 % 0.00 in
17:18 56.0 °F 46.7 °F 30.22 in Calm     71 % 0.00 in
17:23 55.3 °F 46.8 °F 30.22 in Calm     73 % 0.00 in
17:28 54.6 °F 46.5 °F 30.22 in Calm     74 % 0.00 in
17:38 53.8 °F 47.1 °F 30.22 in Calm     78 % 0.00 in
17:43 53.4 °F 47.0 °F 30.22 in Calm     79 % 0.00 in
17:48 52.9 °F 47.2 °F 30.23 in Calm     81 % 0.00 in
17:58 52.2 °F 47.2 °F 30.23 in Calm     83 % 0.00 in
18:03 51.8 °F 46.8 °F 30.23 in Calm     83 % 0.00 in
18:08 51.4 °F 46.7 °F 30.23 in Calm     84 % 0.00 in
18:13 50.9 °F 46.6 °F 30.23 in Calm     85 % 0.00 in
18:18 50.5 °F 46.2 °F 30.23 in Calm     85 % 0.00 in
18:23 50.2 °F 46.2 °F 30.23 in Calm     86 % 0.00 in
18:28 50.0 °F 46.3 °F 30.23 in Calm     87 % 0.00 in
18:33 50.0 °F 46.0 °F 30.23 in Calm     86 % 0.00 in
18:38 49.8 °F 45.8 °F 30.23 in Calm     86 % 0.00 in
18:43 49.5 °F 45.5 °F 30.23 in Calm     86 % 0.00 in
18:48 49.1 °F 45.1 °F 30.24 in Calm     86 % 0.00 in
18:53 48.7 °F 44.7 °F 30.24 in SSE 1.2 mph   86 % 0.00 in
18:58 48.2 °F 44.8 °F 30.24 in Calm     88 % 0.00 in
19:03 48.1 °F 45.0 °F 30.24 in Calm     89 % 0.00 in
19:08 47.9 °F 44.5 °F 30.24 in Calm     88 % 0.00 in
19:18 47.6 °F 44.5 °F 30.24 in Calm     89 % 0.00 in
19:48 47.8 °F 45.3 °F 30.23 in Calm     91 % 0.00 in
19:53 47.9 °F 45.1 °F 30.24 in Calm     90 % 0.00 in
19:58 47.5 °F 44.4 °F 30.24 in Calm     89 % 0.00 in
20:08 47.2 °F 44.1 °F 30.24 in Calm     89 % 0.00 in
20:18 46.9 °F 43.8 °F 30.24 in Calm     89 % 0.00 in
20:23 46.6 °F 43.8 °F 30.24 in Calm     90 % 0.00 in
20:28 46.3 °F 43.5 °F 30.24 in Calm     90 % 0.00 in
20:33 46.2 °F 43.7 °F 30.24 in Calm     91 % 0.00 in
20:43 45.9 °F 43.7 °F 30.24 in Calm     92 % 0.00 in
20:48 46.0 °F 43.8 °F 30.24 in Calm     92 % 0.00 in
20:53 45.8 °F 43.3 °F 30.24 in Calm     91 % 0.00 in
20:58 45.5 °F 43.0 °F 30.24 in Calm     91 % 0.00 in
21:03 45.4 °F 43.2 °F 30.24 in Calm     92 % 0.00 in
21:13 44.9 °F 42.7 °F 30.24 in Calm     92 % 0.00 in
21:18 44.7 °F 42.5 °F 30.24 in Calm     92 % 0.00 in
21:28 44.6 °F 42.7 °F 30.24 in Calm     93 % 0.00 in
21:33 44.5 °F 42.6 °F 30.24 in Calm     93 % 0.00 in
21:38 44.3 °F 42.4 °F 30.24 in Calm     93 % 0.00 in
21:43 44.0 °F 42.1 °F 30.24 in Calm     93 % 0.00 in
21:48 44.0 °F 42.1 °F 30.24 in Calm     93 % 0.00 in
21:53 43.9 °F 42.0 °F 30.24 in Calm     93 % 0.00 in
22:03 43.6 °F 41.7 °F 30.24 in Calm     93 % 0.00 in
22:08 43.2 °F 41.3 °F 30.24 in Calm     93 % 0.00 in
22:14 42.7 °F 40.8 °F 30.24 in Calm     93 % 0.00 in
22:18 42.5 °F 40.6 °F 30.24 in Calm     93 % 0.00 in
22:23 42.3 °F 40.4 °F 30.24 in Calm     93 % 0.00 in
22:28 42.2 °F 40.3 °F 30.24 in Calm     93 % 0.00 in
22:39 42.0 °F 40.1 °F 30.24 in Calm     93 % 0.00 in
22:43 42.1 °F 40.5 °F 30.24 in Calm     94 % 0.00 in
22:54 41.9 °F 40.0 °F 30.23 in Calm     93 % 0.00 in
22:59 41.7 °F 39.8 °F 30.23 in Calm     93 % 0.00 in
23:04 41.6 °F 39.7 °F 30.23 in Calm     93 % 0.00 in
23:09 41.7 °F 40.1 °F 30.23 in Calm     94 % 0.00 in
23:14 41.6 °F 40.0 °F 30.23 in Calm     94 % 0.00 in
23:19 41.4 °F 39.5 °F 30.23 in Calm     93 % 0.00 in
23:24 41.2 °F 39.3 °F 30.23 in Calm     93 % 0.00 in
23:34 39.9 °F 37.5 °F 30.23 in Calm     91 % 0.00 in
23:39 39.3 °F 36.9 °F 30.23 in Calm     91 % 0.00 in
23:49 39.0 °F 36.9 °F 30.22 in Calm     92 % 0.00 in
23:54 39.1 °F 37.2 °F 30.22 in Calm     93 % 0.00 in
23:59 39.3 °F 37.7 °F 30.22 in Calm     94 % 0.00 in
Park Place, Exeter, Tulare County, California, USA
Compliments of Weather Underground - 2.5 mb